Terminal Aerodrome Forecast
Issued by NWS

Home | Current Version | Previous Version | Text Only | Print | Product List | Glossary On
Versions: 1 2 3 4 5 6 7 8 9 10 11 12 13 14 15 16
000
FTUS46 KLOX 280100 AAA
TAFSBP
TAF AMD
KSBP 280104Z 2801/2824 30015G23KT P6SM BKN020
     FM280300 31012KT P6SM SCT025 BKN040
     FM280500 31007KT P6SM SCT025 BKN040
     FM280800 28005KT P6SM BKN025 OVC035
     FM281200 VRB03KT P6SM VCSH SCT025 OVC035
     FM281500 VRB03KT 6SM -SHRA BR SCT015 OVC025
     FM281900 29009KT 6SM -SHRA BR SCT025 BKN035=

USA.gov is the U.S. government's official web portal to all federal, state and local government web resources and services.